Time;durP1;ratioP1;P1;durP2;ratioP2;P2;SDS_P1;SDS_P2;PMS_P1;PMS_P2;Temp;Humidity;BMP_temperature;BMP_pressure;BME280_temperature;BME280_humidity;BME280_pressure;Samples;Min_cycle;Max_cycle;Signal;HPM_P1;HPM_P2
2023/07/14 00:00:18;;;;;;;;;;;;;;;;;;1290671;23;20073;-77
2023/07/14 00:00:48;;;;;;;;;;;;;;;;;;1291006;23;19994;-78
2023/07/14 00:01:18;;;;;;;;;;;;;;;;;;1291387;23;19908;-78
2023/07/14 00:01:49;;;;;;;;;;;;;;;;;;1291311;22;19904;-76
2023/07/14 00:02:19;;;;;;;;;;;;;;;;;;1290765;22;19957;-76
2023/07/14 00:02:50;;;;;;;;;;;;;;;;;;1290909;23;20476;-77
2023/07/14 00:03:20;;;;;;;;;;;;;;;;;;1291032;22;20384;-76
2023/07/14 00:03:50;;;;;;;;;;;;;;;;;;1290871;22;19959;-77
2023/07/14 00:04:21;;;;;;;;;;;;;;;;;;1290996;23;19942;-76
2023/07/14 00:04:51;;;;;;;;;;;;;;;;;;1290915;23;19911;-77
2023/07/14 00:05:22;;;;;;;;;;;;;;;;;;1291162;23;20315;-77
2023/07/14 00:05:52;;;;;;;;;;;;;;;;;;1290744;23;20029;-77
2023/07/14 00:06:22;;;;;;;;;;;;;;;;;;1290881;22;20328;-76
2023/07/14 00:06:52;;;;;;;;;;;;;;;;;;1290795;23;19903;-76
2023/07/14 00:07:23;;;;;;;;;;;;;;;;;;1291104;22;19904;-78
2023/07/14 00:07:54;;;;;;;;;;;;;;;;;;1290638;23;19910;-78
2023/07/14 00:08:25;;;;;;;;;;;;;;;;;;1291142;23;19904;-78
2023/07/14 00:08:55;;;;;;;;;;;;;;;;;;1290968;23;20195;-78
2023/07/14 00:09:25;;;;;;;;;;;;;;;;;;1285205;23;19904;-78
2023/07/14 00:09:55;;;;;;;;;;;;;;;;;;1290576;22;19907;-78
2023/07/14 00:10:26;;;;;;;;;;;;;;;;;;1291079;22;20276;-78
2023/07/14 00:10:56;;;;;;;;;;;;;;;;;;1290843;22;20503;-78
2023/07/14 00:11:26;;;;;;;;;;;;;;;;;;1291183;23;19910;-78
2023/07/14 00:11:56;;;;;;;;;;;;;;;;;;1290774;23;19951;-78
2023/07/14 00:12:27;;;;;;;;;;;;;;;;;;1284878;23;19958;-78
2023/07/14 00:12:57;;;;;;;;;;;;;;;;;;1284522;23;20970;-79
2023/07/14 00:18:01;;;;;;;;;;;;;;;;;;1259546;23;20354;-77
2023/07/14 00:18:32;;;;;;;;;;;;;;;;;;1259623;23;19947;-78
2023/07/14 00:19:02;;;;;;;;;;;;;;;;;;1259181;23;19979;-78
2023/07/14 00:20:50;;;;;;;;;;;;;;;;;;1284507;23;19962;-79
2023/07/14 00:21:22;;;;;;;;;;;;;;;;;;1285186;23;20010;-79
2023/07/14 00:28:32;;;;;;;;;;;;;;;;;;1287367;22;20897;-78
2023/07/14 00:29:42;;;;;;;;;;;;;;;;;;1282773;22;20819;-78
2023/07/14 00:31:33;;;;;;;;;;;;;;;;;;1260200;22;21152;-78
2023/07/14 00:37:18;;;;;;;;;;;;;;;;;;1255118;22;19925;-79
2023/07/14 00:39:08;;;;;;;;;;;;;;;;;;1265694;22;19957;-79
2023/07/14 00:42:52;;;;;;;;;;;;;;;;;;1259568;23;19926;-78
2023/07/14 00:43:24;;;;;;;;;;;;;;;;;;1259878;23;19992;-78
2023/07/14 00:43:54;;;;;;;;;;;;;;;;;;1259539;23;19944;-78
2023/07/14 00:44:24;;;;;;;;;;;;;;;;;;1259828;23;20242;-79
2023/07/14 00:44:55;;;;;;;;;;;;;;;;;;1253338;23;19906;-79
2023/07/14 00:45:25;;;;;;;;;;;;;;;;;;1253631;23;19953;-79
2023/07/14 00:45:56;;;;;;;;;;;;;;;;;;1253057;23;19906;-79
2023/07/14 00:46:26;;;;;;;;;;;;;;;;;;1253588;23;20283;-78
2023/07/14 00:46:56;;;;;;;;;;;;;;;;;;1259381;23;20280;-78
2023/07/14 00:47:26;;;;;;;;;;;;;;;;;;1259884;23;19906;-78
2023/07/14 00:47:57;;;;;;;;;;;;;;;;;;1252734;23;19929;-79
2023/07/14 00:48:28;;;;;;;;;;;;;;;;;;1253312;23;19912;-78
2023/07/14 00:48:58;;;;;;;;;;;;;;;;;;1247307;23;20334;-78
2023/07/14 00:49:28;;;;;;;;;;;;;;;;;;1247707;23;19906;-78
2023/07/14 00:49:58;;;;;;;;;;;;;;;;;;1253028;23;19906;-79
2023/07/14 00:50:29;;;;;;;;;;;;;;;;;;1253598;23;19913;-79
2023/07/14 00:50:59;;;;;;;;;;;;;;;;;;1253233;23;19912;-79
2023/07/14 00:51:29;;;;;;;;;;;;;;;;;;1253417;23;19995;-79
2023/07/14 00:51:59;;;;;;;;;;;;;;;;;;1253164;23;19906;-79
2023/07/14 00:52:30;;;;;;;;;;;;;;;;;;1253554;23;20265;-79
2023/07/14 00:53:00;;;;;;;;;;;;;;;;;;1253338;23;19920;-79
2023/07/14 00:53:30;;;;;;;;;;;;;;;;;;1253424;23;19914;-79
2023/07/14 00:54:00;;;;;;;;;;;;;;;;;;1253092;23;20258;-79
2023/07/14 00:54:31;;;;;;;;;;;;;;;;;;1253422;23;19948;-79
2023/07/14 00:55:01;;;;;;;;;;;;;;;;;;1253406;23;19909;-79
2023/07/14 00:55:31;;;;;;;;;;;;;;;;;;1253443;23;20346;-79
2023/07/14 00:56:02;;;;;;;;;;;;;;;;;;1253140;23;20238;-79
2023/07/14 00:56:32;;;;;;;;;;;;;;;;;;1247612;23;19910;-79
2023/07/14 00:57:02;;;;;;;;;;;;;;;;;;1247397;23;19913;-79
2023/07/14 00:57:34;;;;;;;;;;;;;;;;;;1253431;23;19910;-79
2023/07/14 00:58:04;;;;;;;;;;;;;;;;;;1247043;23;20376;-79
2023/07/14 00:58:35;;;;;;;;;;;;;;;;;;1241536;23;19914;-79
2023/07/14 00:59:05;;;;;;;;;;;;;;;;;;1241767;23;19913;-79
2023/07/14 00:59:35;;;;;;;;;;;;;;;;;;1248637;23;19910;-80
2023/07/14 01:00:06;;;;;;;;;;;;;;;;;;1253236;23;20336;-79
2023/07/14 01:00:36;;;;;;;;;;;;;;;;;;1253608;23;19992;-79
2023/07/14 01:01:10;;;;;;;;;;;;;;;;;;1259595;23;19905;-79
2023/07/14 01:01:40;;;;;;;;;;;;;;;;;;1253509;23;19972;-79
2023/07/14 01:02:10;;;;;;;;;;;;;;;;;;1247377;23;19917;-79
2023/07/14 01:02:41;;;;;;;;;;;;;;;;;;1247414;23;20274;-79
2023/07/14 01:03:11;;;;;;;;;;;;;;;;;;1247526;23;19993;-79
2023/07/14 01:03:41;;;;;;;;;;;;;;;;;;1253464;23;19980;-79
2023/07/14 01:06:39;;;;;;;;;;;;;;;;;;1265882;23;20402;-79
2023/07/14 01:11:10;;;;;;;;;;;;;;;;;;1264986;22;21337;-80
2023/07/14 01:11:41;;;;;;;;;;;;;;;;;;1265870;23;19913;-80
2023/07/14 01:12:12;;;;;;;;;;;;;;;;;;1264529;22;19913;-76
2023/07/14 01:12:42;;;;;;;;;;;;;;;;;;1302434;22;20223;-79
2023/07/14 01:13:12;;;;;;;;;;;;;;;;;;1303755;22;19961;-79
2023/07/14 01:13:43;;;;;;;;;;;;;;;;;;1304030;22;19903;-79
2023/07/14 01:14:13;;;;;;;;;;;;;;;;;;1303643;22;19910;-76
2023/07/14 01:14:43;;;;;;;;;;;;;;;;;;1303623;22;19960;-76
2023/07/14 01:15:14;;;;;;;;;;;;;;;;;;1303731;22;20369;-78
2023/07/14 01:15:44;;;;;;;;;;;;;;;;;;1303567;22;19939;-77
2023/07/14 01:16:18;;;;;;;;;;;;;;;;;;1303310;22;19985;-77
2023/07/14 01:16:48;;;;;;;;;;;;;;;;;;1296804;22;19904;-78
2023/07/14 01:17:19;;;;;;;;;;;;;;;;;;1297241;22;19907;-77
2023/07/14 01:17:53;;;;;;;;;;;;;;;;;;1288632;23;19904;-78
2023/07/14 01:18:23;;;;;;;;;;;;;;;;;;1285353;23;19904;-77
2023/07/14 01:18:53;;;;;;;;;;;;;;;;;;1283815;23;19911;-78
2023/07/14 01:19:24;;;;;;;;;;;;;;;;;;1285288;23;20260;-81
2023/07/14 01:19:54;;;;;;;;;;;;;;;;;;1284015;23;19903;-80
2023/07/14 01:20:24;;;;;;;;;;;;;;;;;;1284506;23;20348;-80
2023/07/14 01:20:54;;;;;;;;;;;;;;;;;;1290410;22;19904;-80
2023/07/14 01:21:25;;;;;;;;;;;;;;;;;;1289941;23;19904;-80
2023/07/14 01:21:55;;;;;;;;;;;;;;;;;;1290383;23;19927;-78
2023/07/14 01:22:26;;;;;;;;;;;;;;;;;;1290594;23;19904;-77
2023/07/14 01:22:56;;;;;;;;;;;;;;;;;;1290517;22;19927;-77
2023/07/14 01:23:26;;;;;;;;;;;;;;;;;;1297465;22;19903;-78
2023/07/14 01:23:56;;;;;;;;;;;;;;;;;;1296793;22;19907;-78
2023/07/14 01:24:26;;;;;;;;;;;;;;;;;;1297022;22;19907;-78
2023/07/14 01:24:57;;;;;;;;;;;;;;;;;;1296998;22;19954;-78
2023/07/14 01:25:27;;;;;;;;;;;;;;;;;;1297586;22;20300;-78
2023/07/14 01:25:57;;;;;;;;;;;;;;;;;;1296823;22;20241;-78
2023/07/14 01:26:27;;;;;;;;;;;;;;;;;;1297442;22;19903;-78
2023/07/14 01:26:58;;;;;;;;;;;;;;;;;;1296987;22;19969;-77
2023/07/14 01:54:38;;;;;;;;;;;;;;;;;;1298103;22;19972;-81
2023/07/14 01:55:10;;;;;;;;;;;;;;;;;;1297704;22;19953;-80
2023/07/14 01:55:40;;;;;;;;;;;;;;;;;;1297793;22;19904;-81
2023/07/14 01:56:10;;;;;;;;;;;;;;;;;;1297348;22;20343;-79
2023/07/14 01:56:40;;;;;;;;;;;;;;;;;;1297771;22;19926;-79
2023/07/14 01:57:12;;;;;;;;;;;;;;;;;;1297780;22;19942;-78
2023/07/14 01:57:42;;;;;;;;;;;;;;;;;;1298020;22;19907;-79
2023/07/14 01:58:13;;;;;;;;;;;;;;;;;;1297729;22;20292;-79
2023/07/14 01:58:43;;;;;;;;;;;;;;;;;;1297985;22;19907;-78
2023/07/14 01:59:13;;;;;;;;;;;;;;;;;;1297760;22;19918;-77
2023/07/14 01:59:43;;;;;;;;;;;;;;;;;;1290895;23;19904;-80
2023/07/14 02:02:54;;;;;;;;;;;;;;;;;;1264225;22;20515;-77
2023/07/14 02:03:24;;;;;;;;;;;;;;;;;;1265787;23;19948;-77
2023/07/14 02:03:54;;;;;;;;;;;;;;;;;;1265064;23;19905;-76
2023/07/14 02:04:24;;;;;;;;;;;;;;;;;;1264994;23;19948;-77
2023/07/14 02:04:55;;;;;;;;;;;;;;;;;;1265321;23;19963;-77
2023/07/14 02:05:25;;;;;;;;;;;;;;;;;;1265334;23;20314;-79
2023/07/14 02:05:55;;;;;;;;;;;;;;;;;;1258663;23;19984;-79
2023/07/14 02:06:25;;;;;;;;;;;;;;;;;;1258877;23;19905;-77
2023/07/14 02:06:58;;;;;;;;;;;;;;;;;;1258903;23;19912;-78
2023/07/14 02:07:29;;;;;;;;;;;;;;;;;;1260010;23;19913;-79
2023/07/14 02:07:59;;;;;;;;;;;;;;;;;;1259099;23;19912;-79
2023/07/14 02:08:29;;;;;;;;;;;;;;;;;;1259407;23;19921;-79
2023/07/14 02:09:00;;;;;;;;;;;;;;;;;;1259151;23;19905;-78
2023/07/14 02:09:30;;;;;;;;;;;;;;;;;;1258772;23;19991;-79
2023/07/14 02:10:00;;;;;;;;;;;;;;;;;;1258779;23;19909;-79
2023/07/14 02:10:31;;;;;;;;;;;;;;;;;;1258915;23;19909;-79
2023/07/14 02:11:01;;;;;;;;;;;;;;;;;;1259057;23;20361;-77
2023/07/14 02:11:31;;;;;;;;;;;;;;;;;;1259183;23;19910;-77
2023/07/14 02:12:02;;;;;;;;;;;;;;;;;;1258666;23;19932;-77
2023/07/14 02:12:32;;;;;;;;;;;;;;;;;;1259320;23;20046;-78
2023/07/14 02:13:02;;;;;;;;;;;;;;;;;;1258960;23;19992;-76
2023/07/14 02:13:32;;;;;;;;;;;;;;;;;;1259056;23;19909;-80
2023/07/14 02:14:03;;;;;;;;;;;;;;;;;;1259101;23;19905;-78
2023/07/14 02:14:33;;;;;;;;;;;;;;;;;;1259063;23;19909;-80
2023/07/14 02:15:03;;;;;;;;;;;;;;;;;;1258146;23;19913;-80
2023/07/14 02:15:34;;;;;;;;;;;;;;;;;;1265772;23;20371;-77
2023/07/14 02:16:04;;;;;;;;;;;;;;;;;;1265149;23;19912;-78
2023/07/14 02:16:36;;;;;;;;;;;;;;;;;;1265151;23;19915;-78
2023/07/14 02:17:06;;;;;;;;;;;;;;;;;;1265051;23;20039;-77
2023/07/14 02:17:37;;;;;;;;;;;;;;;;;;1259190;23;20296;-78
2023/07/14 02:18:07;;;;;;;;;;;;;;;;;;1259045;23;19905;-79
2023/07/14 02:18:38;;;;;;;;;;;;;;;;;;1258810;23;20000;-79
2023/07/14 02:19:08;;;;;;;;;;;;;;;;;;1259090;23;19992;-79
2023/07/14 02:19:38;;;;;;;;;;;;;;;;;;1259780;23;19950;-78
2023/07/14 02:20:10;;;;;;;;;;;;;;;;;;1258504;23;19996;-80
2023/07/14 02:20:41;;;;;;;;;;;;;;;;;;1259186;23;19953;-79
2023/07/14 02:21:12;;;;;;;;;;;;;;;;;;1260006;23;20044;-79
2023/07/14 02:21:42;;;;;;;;;;;;;;;;;;1260221;23;19905;-78
2023/07/14 02:23:27;;;;;;;;;;;;;;;;;;1269765;23;19925;-78
2023/07/14 02:23:59;;;;;;;;;;;;;;;;;;1270928;23;19963;-78
2023/07/14 02:24:30;;;;;;;;;;;;;;;;;;1271803;23;19909;-79
2023/07/14 02:25:02;;;;;;;;;;;;;;;;;;1271596;23;19905;-80
2023/07/14 02:28:13;;;;;;;;;;;;;;;;;;1290445;22;20374;-78
2023/07/14 02:29:23;;;;;;;;;;;;;;;;;;1265200;22;19929;-78
2023/07/14 02:29:53;;;;;;;;;;;;;;;;;;1265142;23;19909;-76
2023/07/14 02:30:26;;;;;;;;;;;;;;;;;;1265241;23;20321;-78
2023/07/14 02:30:56;;;;;;;;;;;;;;;;;;1265209;23;19905;-78
2023/07/14 02:31:26;;;;;;;;;;;;;;;;;;1265480;23;20311;-78
2023/07/14 02:31:56;;;;;;;;;;;;;;;;;;1258541;23;19905;-78
2023/07/14 02:32:27;;;;;;;;;;;;;;;;;;1259156;23;19906;-78
2023/07/14 02:32:57;;;;;;;;;;;;;;;;;;1258608;23;19906;-77
2023/07/14 02:33:27;;;;;;;;;;;;;;;;;;1259426;23;19905;-78
2023/07/14 02:33:57;;;;;;;;;;;;;;;;;;1265233;23;19905;-79
2023/07/14 02:34:27;;;;;;;;;;;;;;;;;;1259060;23;20327;-75
2023/07/14 02:34:58;;;;;;;;;;;;;;;;;;1258499;23;19992;-75
2023/07/14 02:35:33;;;;;;;;;;;;;;;;;;1259166;23;19980;-78
2023/07/14 02:36:03;;;;;;;;;;;;;;;;;;1258286;23;19969;-78
2023/07/14 02:36:34;;;;;;;;;;;;;;;;;;1258043;23;20294;-77
2023/07/14 02:37:04;;;;;;;;;;;;;;;;;;1252776;23;20311;-76
2023/07/14 02:37:39;;;;;;;;;;;;;;;;;;1253084;23;20389;-77
2023/07/14 02:38:10;;;;;;;;;;;;;;;;;;1259804;23;19913;-77
2023/07/14 02:38:40;;;;;;;;;;;;;;;;;;1264991;23;20245;-77
2023/07/14 02:39:11;;;;;;;;;;;;;;;;;;1258848;23;20253;-76
2023/07/14 02:39:41;;;;;;;;;;;;;;;;;;1258930;23;19996;-77
2023/07/14 02:40:11;;;;;;;;;;;;;;;;;;1258872;23;19920;-80
2023/07/14 02:40:41;;;;;;;;;;;;;;;;;;1257616;23;19967;-78
2023/07/14 02:41:12;;;;;;;;;;;;;;;;;;1265349;23;19923;-78
2023/07/14 02:41:42;;;;;;;;;;;;;;;;;;1265081;23;19912;-78
2023/07/14 02:42:52;;;;;;;;;;;;;;;;;;1290581;22;19948;-79
2023/07/14 02:46:40;;;;;;;;;;;;;;;;;;1267616;22;19967;-77
2023/07/14 02:48:20;;;;;;;;;;;;;;;;;;1290015;22;19999;-79
2023/07/14 02:48:50;;;;;;;;;;;;;;;;;;1290999;23;19994;-80
2023/07/14 02:49:21;;;;;;;;;;;;;;;;;;1291271;23;19943;-77
2023/07/14 02:49:51;;;;;;;;;;;;;;;;;;1290960;23;20446;-78
2023/07/14 02:50:21;;;;;;;;;;;;;;;;;;1290707;23;20324;-78
2023/07/14 02:50:51;;;;;;;;;;;;;;;;;;1290585;23;20329;-76
2023/07/14 02:51:22;;;;;;;;;;;;;;;;;;1290800;23;20336;-77
2023/07/14 02:51:52;;;;;;;;;;;;;;;;;;1290714;22;20283;-80
2023/07/14 02:52:22;;;;;;;;;;;;;;;;;;1297102;22;19976;-80
2023/07/14 02:52:52;;;;;;;;;;;;;;;;;;1296718;22;19903;-78
2023/07/14 02:53:22;;;;;;;;;;;;;;;;;;1297059;22;20243;-78
2023/07/14 02:53:53;;;;;;;;;;;;;;;;;;1296351;22;19903;-77
2023/07/14 02:54:25;;;;;;;;;;;;;;;;;;1296335;22;20252;-79
2023/07/14 02:54:56;;;;;;;;;;;;;;;;;;1296822;22;19922;-78
2023/07/14 02:55:26;;;;;;;;;;;;;;;;;;1297057;22;19903;-77
2023/07/14 02:55:56;;;;;;;;;;;;;;;;;;1290288;22;19911;-77
2023/07/14 02:56:26;;;;;;;;;;;;;;;;;;1296909;22;20434;-78
2023/07/14 02:56:57;;;;;;;;;;;;;;;;;;1296448;22;19904;-77
2023/07/14 02:57:27;;;;;;;;;;;;;;;;;;1297087;22;19907;-80
2023/07/14 02:57:57;;;;;;;;;;;;;;;;;;1297136;22;19904;-80
2023/07/14 02:58:27;;;;;;;;;;;;;;;;;;1297566;22;19909;-77
2023/07/14 02:58:58;;;;;;;;;;;;;;;;;;1297410;22;20347;-76
2023/07/14 02:59:28;;;;;;;;;;;;;;;;;;1297281;22;19910;-77
2023/07/14 02:59:58;;;;;;;;;;;;;;;;;;1296547;22;19939;-78
2023/07/14 03:00:28;;;;;;;;;;;;;;;;;;1296974;22;19903;-78
2023/07/14 03:00:59;;;;;;;;;;;;;;;;;;1296867;22;19911;-76
2023/07/14 03:01:32;;;;;;;;;;;;;;;;;;1297206;22;19918;-79
2023/07/14 03:03:20;;;;;;;;;;;;;;;;;;1285108;22;19915;-77
2023/07/14 03:03:51;;;;;;;;;;;;;;;;;;1290980;23;19908;-79
2023/07/14 03:04:23;;;;;;;;;;;;;;;;;;1290875;22;19958;-77
2023/07/14 03:04:54;;;;;;;;;;;;;;;;;;1290633;22;20204;-79
2023/07/14 03:05:24;;;;;;;;;;;;;;;;;;1291550;22;19955;-77
2023/07/14 03:05:54;;;;;;;;;;;;;;;;;;1290095;23;19990;-76
2023/07/14 03:06:25;;;;;;;;;;;;;;;;;;1290580;23;20363;-76
2023/07/14 03:06:55;;;;;;;;;;;;;;;;;;1288611;22;20460;-78
2023/07/14 03:07:25;;;;;;;;;;;;;;;;;;1290890;23;19998;-78
2023/07/14 03:07:55;;;;;;;;;;;;;;;;;;1296152;22;19990;-77
2023/07/14 03:08:28;;;;;;;;;;;;;;;;;;1296681;22;20050;-80
2023/07/14 03:08:58;;;;;;;;;;;;;;;;;;1296549;22;19903;-77
2023/07/14 03:09:29;;;;;;;;;;;;;;;;;;1291231;22;19931;-78
2023/07/14 03:09:59;;;;;;;;;;;;;;;;;;1296352;22;19903;-77
2023/07/14 03:10:29;;;;;;;;;;;;;;;;;;1296856;22;19934;-77
2023/07/14 03:11:00;;;;;;;;;;;;;;;;;;1296337;22;19903;-78
2023/07/14 03:11:30;;;;;;;;;;;;;;;;;;1297326;22;19907;-77
2023/07/14 03:12:00;;;;;;;;;;;;;;;;;;1296993;22;20228;-78
2023/07/14 03:14:23;;;;;;;;;;;;;;;;;;1252780;22;20682;-79
2023/07/14 03:15:33;;;;;;;;;;;;;;;;;;1275519;23;19924;-79
2023/07/14 03:16:03;;;;;;;;;;;;;;;;;;1277330;22;19931;-77
2023/07/14 03:16:33;;;;;;;;;;;;;;;;;;1277593;22;19908;-78
2023/07/14 03:17:03;;;;;;;;;;;;;;;;;;1277634;23;19904;-78
2023/07/14 03:17:34;;;;;;;;;;;;;;;;;;1271413;22;20321;-80
2023/07/14 03:18:04;;;;;;;;;;;;;;;;;;1271017;23;20192;-77
2023/07/14 03:18:34;;;;;;;;;;;;;;;;;;1271341;23;19915;-81
2023/07/14 03:19:04;;;;;;;;;;;;;;;;;;1271207;23;19991;-79
2023/07/14 03:19:35;;;;;;;;;;;;;;;;;;1277787;23;19908;-77
2023/07/14 03:20:09;;;;;;;;;;;;;;;;;;1277188;23;19957;-77
2023/07/14 03:20:40;;;;;;;;;;;;;;;;;;1276446;23;20339;-78
2023/07/14 03:21:10;;;;;;;;;;;;;;;;;;1270426;22;19911;-78
2023/07/14 03:21:40;;;;;;;;;;;;;;;;;;1270984;23;20337;-78
2023/07/14 03:22:10;;;;;;;;;;;;;;;;;;1270468;23;19977;-76
2023/07/14 03:22:41;;;;;;;;;;;;;;;;;;1264643;23;19904;-79
2023/07/14 03:23:11;;;;;;;;;;;;;;;;;;1264201;23;19905;-78
2023/07/14 03:23:41;;;;;;;;;;;;;;;;;;1258721;23;20376;-78
2023/07/14 03:24:12;;;;;;;;;;;;;;;;;;1256996;23;20044;-80
2023/07/14 03:24:42;;;;;;;;;;;;;;;;;;1264658;23;19913;-78
2023/07/14 03:25:12;;;;;;;;;;;;;;;;;;1264866;23;19948;-77
2023/07/14 03:25:42;;;;;;;;;;;;;;;;;;1259321;23;19905;-77
2023/07/14 03:26:13;;;;;;;;;;;;;;;;;;1258829;23;20416;-78
2023/07/14 03:26:43;;;;;;;;;;;;;;;;;;1264704;23;19909;-80
2023/07/14 03:27:48;;;;;;;;;;;;;;;;;;1259039;23;19925;-80
2023/07/14 03:28:18;;;;;;;;;;;;;;;;;;1259438;22;19917;-77
2023/07/14 03:28:48;;;;;;;;;;;;;;;;;;1254107;23;19914;-77
2023/07/14 03:29:18;;;;;;;;;;;;;;;;;;1259411;23;20334;-75
2023/07/14 03:29:49;;;;;;;;;;;;;;;;;;1259207;23;20234;-80
2023/07/14 03:30:19;;;;;;;;;;;;;;;;;;1259005;23;19928;-78
2023/07/14 03:30:49;;;;;;;;;;;;;;;;;;1259203;23;19906;-78
2023/07/14 03:31:20;;;;;;;;;;;;;;;;;;1258988;23;19984;-77
2023/07/14 03:31:50;;;;;;;;;;;;;;;;;;1259632;23;19912;-78
2023/07/14 03:32:20;;;;;;;;;;;;;;;;;;1259100;23;20340;-81
2023/07/14 03:32:51;;;;;;;;;;;;;;;;;;1259151;23;20322;-79
2023/07/14 03:35:21;;;;;;;;;;;;;;;;;;1263810;22;19917;-78
2023/07/14 03:35:51;;;;;;;;;;;;;;;;;;1265386;23;20334;-79
2023/07/14 03:36:23;;;;;;;;;;;;;;;;;;1264498;23;19936;-77
2023/07/14 03:36:53;;;;;;;;;;;;;;;;;;1264648;23;20338;-79
2023/07/14 03:37:24;;;;;;;;;;;;;;;;;;1258907;23;19905;-77
2023/07/14 03:37:54;;;;;;;;;;;;;;;;;;1258596;23;20333;-78
2023/07/14 03:38:24;;;;;;;;;;;;;;;;;;1258807;23;19986;-76
2023/07/14 03:38:54;;;;;;;;;;;;;;;;;;1258226;23;19980;-77
2023/07/14 03:39:25;;;;;;;;;;;;;;;;;;1265324;23;19905;-78
2023/07/14 03:39:55;;;;;;;;;;;;;;;;;;1258441;23;19905;-78
2023/07/14 03:40:26;;;;;;;;;;;;;;;;;;1257879;23;19905;-77
2023/07/14 03:42:14;;;;;;;;;;;;;;;;;;1290603;22;20342;-77
2023/07/14 03:42:44;;;;;;;;;;;;;;;;;;1290968;23;19903;-79
2023/07/14 03:43:14;;;;;;;;;;;;;;;;;;1290796;23;19907;-77
2023/07/14 03:43:45;;;;;;;;;;;;;;;;;;1290490;23;19903;-77
2023/07/14 03:44:15;;;;;;;;;;;;;;;;;;1290473;23;20343;-78
2023/07/14 03:44:46;;;;;;;;;;;;;;;;;;1290817;23;20316;-80
2023/07/14 03:47:45;;;;;;;;;;;;;;;;;;1272296;22;19929;-76
2023/07/14 03:48:16;;;;;;;;;;;;;;;;;;1264862;23;19959;-76
2023/07/14 03:48:46;;;;;;;;;;;;;;;;;;1264769;23;19905;-77
2023/07/14 03:49:16;;;;;;;;;;;;;;;;;;1265119;23;19905;-79
2023/07/14 03:49:46;;;;;;;;;;;;;;;;;;1264382;23;19913;-77
2023/07/14 03:50:17;;;;;;;;;;;;;;;;;;1264206;23;20031;-77
2023/07/14 03:51:30;;;;;;;;;;;;;;;;;;1280647;22;19919;-75
2023/07/14 03:52:00;;;;;;;;;;;;;;;;;;1283962;23;19908;-78
2023/07/14 03:52:30;;;;;;;;;;;;;;;;;;1283941;23;20013;-78
2023/07/14 03:53:01;;;;;;;;;;;;;;;;;;1284674;23;19904;-78
2023/07/14 03:53:31;;;;;;;;;;;;;;;;;;1284722;23;19914;-77
2023/07/14 03:54:01;;;;;;;;;;;;;;;;;;1281908;23;20007;-77
2023/07/14 03:54:31;;;;;;;;;;;;;;;;;;1280089;23;20002;-78
2023/07/14 03:55:01;;;;;;;;;;;;;;;;;;1278953;23;20434;-76
2023/07/14 03:55:32;;;;;;;;;;;;;;;;;;1280466;23;19922;-77
2023/07/14 03:58:00;;;;;;;;;;;;;;;;;;1281842;22;20831;-78
2023/07/14 03:58:30;;;;;;;;;;;;;;;;;;1280822;23;19916;-78
2023/07/14 03:59:00;;;;;;;;;;;;;;;;;;1275243;23;20553;-77
2023/07/14 03:59:31;;;;;;;;;;;;;;;;;;1278096;23;19908;-78
2023/07/14 04:00:11;;;;;;;;;;;;;;;;;;1278569;23;20252;-77
2023/07/14 04:00:42;;;;;;;;;;;;;;;;;;1280217;23;19904;-79
2023/07/14 04:01:13;;;;;;;;;;;;;;;;;;1284697;23;19904;-78
2023/07/14 04:01:44;;;;;;;;;;;;;;;;;;1284594;23;19911;-76
2023/07/14 04:02:14;;;;;;;;;;;;;;;;;;1284261;23;19907;-78
2023/07/14 04:02:44;;;;;;;;;;;;;;;;;;1283742;23;19932;-76
2023/07/14 04:03:15;;;;;;;;;;;;;;;;;;1283895;23;19939;-77
2023/07/14 04:03:47;;;;;;;;;;;;;;;;;;1283708;23;19950;-79
2023/07/14 04:04:17;;;;;;;;;;;;;;;;;;1284034;23;19934;-78
2023/07/14 04:04:48;;;;;;;;;;;;;;;;;;1283831;23;20340;-79
2023/07/14 04:05:18;;;;;;;;;;;;;;;;;;1284387;23;19998;-78
2023/07/14 04:05:48;;;;;;;;;;;;;;;;;;1282633;23;20325;-78
2023/07/14 04:06:19;;;;;;;;;;;;;;;;;;1282812;23;20430;-79
2023/07/14 04:06:49;;;;;;;;;;;;;;;;;;1283422;23;19911;-79
2023/07/14 04:07:19;;;;;;;;;;;;;;;;;;1284038;23;19908;-77
2023/07/14 04:07:50;;;;;;;;;;;;;;;;;;1283215;23;19904;-77
2023/07/14 04:08:21;;;;;;;;;;;;;;;;;;1283733;23;19903;-77
2023/07/14 04:08:51;;;;;;;;;;;;;;;;;;1283809;23;20333;-77
2023/07/14 04:09:22;;;;;;;;;;;;;;;;;;1283345;23;20505;-77
2023/07/14 04:09:53;;;;;;;;;;;;;;;;;;1283509;23;20419;-78
2023/07/14 04:10:23;;;;;;;;;;;;;;;;;;1283627;23;19911;-77
2023/07/14 04:10:53;;;;;;;;;;;;;;;;;;1283902;23;19961;-77
2023/07/14 04:11:23;;;;;;;;;;;;;;;;;;1284515;23;20015;-79
2023/07/14 04:11:54;;;;;;;;;;;;;;;;;;1277156;23;19904;-79
2023/07/14 04:12:24;;;;;;;;;;;;;;;;;;1283839;23;19915;-78
2023/07/14 04:12:54;;;;;;;;;;;;;;;;;;1267796;23;19908;-78
2023/07/14 04:14:05;;;;;;;;;;;;;;;;;;1263578;22;19958;-76
2023/07/14 04:14:35;;;;;;;;;;;;;;;;;;1248433;23;19936;-77
2023/07/14 04:15:06;;;;;;;;;;;;;;;;;;1252871;23;19951;-78
2023/07/14 04:15:36;;;;;;;;;;;;;;;;;;1256562;22;19992;-80
2023/07/14 04:16:09;;;;;;;;;;;;;;;;;;1265473;22;20288;-76
2023/07/14 04:16:39;;;;;;;;;;;;;;;;;;1283738;23;19912;-75
2023/07/14 04:17:10;;;;;;;;;;;;;;;;;;1268806;23;19932;-78
2023/07/14 04:17:40;;;;;;;;;;;;;;;;;;1258890;23;20341;-77
2023/07/14 04:18:10;;;;;;;;;;;;;;;;;;1258635;23;19905;-77
2023/07/14 04:19:21;;;;;;;;;;;;;;;;;;1287915;22;19981;-78
2023/07/14 04:19:51;;;;;;;;;;;;;;;;;;1294996;22;19918;-77
2023/07/14 04:20:22;;;;;;;;;;;;;;;;;;1298787;22;19903;-77
2023/07/14 04:21:33;;;;;;;;;;;;;;;;;;1295052;22;20002;-77
2023/07/14 04:22:03;;;;;;;;;;;;;;;;;;1296748;22;20263;-77
2023/07/14 04:22:33;;;;;;;;;;;;;;;;;;1297109;22;19907;-77
2023/07/14 04:23:05;;;;;;;;;;;;;;;;;;1275490;22;19917;-78
2023/07/14 04:23:35;;;;;;;;;;;;;;;;;;1285608;22;19968;-77
2023/07/14 04:24:05;;;;;;;;;;;;;;;;;;1296412;22;20347;-78
2023/07/14 04:24:36;;;;;;;;;;;;;;;;;;1297587;22;19911;-80
2023/07/14 04:25:07;;;;;;;;;;;;;;;;;;1297175;22;19903;-79
2023/07/14 04:25:37;;;;;;;;;;;;;;;;;;1259614;23;19925;-77
2023/07/14 04:26:38;;;;;;;;;;;;;;;;;;1265348;22;19927;-78
2023/07/14 04:27:09;;;;;;;;;;;;;;;;;;1269765;23;19931;-78
2023/07/14 04:28:09;;;;;;;;;;;;;;;;;;1262757;22;19937;-76
2023/07/14 04:29:13;;;;;;;;;;;;;;;;;;1285308;23;20383;-76
2023/07/14 04:29:44;;;;;;;;;;;;;;;;;;1285252;23;20398;-79
2023/07/14 04:30:14;;;;;;;;;;;;;;;;;;1284552;23;19963;-78
2023/07/14 04:31:25;;;;;;;;;;;;;;;;;;1285074;22;19934;-80
2023/07/14 04:31:55;;;;;;;;;;;;;;;;;;1290618;22;19924;-76
2023/07/14 04:32:26;;;;;;;;;;;;;;;;;;1292674;22;19990;-91
2023/07/14 04:32:57;;;;;;;;;;;;;;;;;;1275950;22;19913;-76
2023/07/14 04:33:28;;;;;;;;;;;;;;;;;;1282783;22;19929;-78
2023/07/14 04:33:58;;;;;;;;;;;;;;;;;;1303595;22;19910;-78
2023/07/14 04:35:08;;;;;;;;;;;;;;;;;;1267189;22;20471;-76
2023/07/14 04:35:39;;;;;;;;;;;;;;;;;;1290960;22;19943;-77
2023/07/14 04:36:09;;;;;;;;;;;;;;;;;;1289960;22;19904;-77
2023/07/14 04:36:40;;;;;;;;;;;;;;;;;;1288629;22;19907;-77
2023/07/14 04:37:10;;;;;;;;;;;;;;;;;;1290872;22;19910;-76
2023/07/14 04:37:40;;;;;;;;;;;;;;;;;;1291180;22;20232;-78
2023/07/14 04:38:10;;;;;;;;;;;;;;;;;;1290773;23;20005;-77
2023/07/14 04:38:41;;;;;;;;;;;;;;;;;;1289500;22;19926;-76
2023/07/14 04:39:12;;;;;;;;;;;;;;;;;;1290488;22;19911;-76
2023/07/14 04:39:44;;;;;;;;;;;;;;;;;;1289875;22;19903;-77
2023/07/14 04:40:15;;;;;;;;;;;;;;;;;;1288726;23;19938;-76
2023/07/14 04:40:45;;;;;;;;;;;;;;;;;;1290384;23;19910;-78
2023/07/14 04:41:15;;;;;;;;;;;;;;;;;;1290768;23;19903;-77
2023/07/14 04:41:45;;;;;;;;;;;;;;;;;;1290265;22;19966;-79
2023/07/14 04:42:16;;;;;;;;;;;;;;;;;;1291149;22;19923;-78
2023/07/14 04:42:46;;;;;;;;;;;;;;;;;;1289949;23;19918;-78
2023/07/14 04:43:16;;;;;;;;;;;;;;;;;;1290797;23;19903;-79
2023/07/14 04:43:46;;;;;;;;;;;;;;;;;;1289933;22;19904;-78
2023/07/14 04:44:17;;;;;;;;;;;;;;;;;;1290227;23;19915;-79
2023/07/14 04:44:47;;;;;;;;;;;;;;;;;;1290145;23;19911;-77
2023/07/14 04:45:17;;;;;;;;;;;;;;;;;;1290542;23;19986;-78
2023/07/14 04:45:48;;;;;;;;;;;;;;;;;;1290892;22;19904;-77
2023/07/14 04:46:18;;;;;;;;;;;;;;;;;;1289549;22;20054;-76
2023/07/14 04:46:48;;;;;;;;;;;;;;;;;;1289962;23;19950;-76
2023/07/14 04:47:19;;;;;;;;;;;;;;;;;;1290373;23;19955;-76
2023/07/14 04:47:50;;;;;;;;;;;;;;;;;;1290546;23;19938;-77
2023/07/14 04:48:24;;;;;;;;;;;;;;;;;;1289079;22;19970;-79
2023/07/14 04:49:34;;;;;;;;;;;;;;;;;;1263728;22;19917;-79
2023/07/14 04:50:45;;;;;;;;;;;;;;;;;;1253234;23;19925;-79
2023/07/14 04:51:15;;;;;;;;;;;;;;;;;;1253499;23;19906;-80
2023/07/14 04:52:25;;;;;;;;;;;;;;;;;;1268872;22;20245;-79
2023/07/14 04:52:56;;;;;;;;;;;;;;;;;;1261493;22;20117;-77
2023/07/14 04:53:26;;;;;;;;;;;;;;;;;;1264752;23;19913;-76
2023/07/14 04:53:56;;;;;;;;;;;;;;;;;;1262764;23;19905;-77
2023/07/14 04:55:01;;;;;;;;;;;;;;;;;;1247040;23;20008;-77
2023/07/14 04:55:31;;;;;;;;;;;;;;;;;;1246993;23;19910;-78
2023/07/14 04:56:01;;;;;;;;;;;;;;;;;;1247315;23;19906;-78
2023/07/14 04:56:31;;;;;;;;;;;;;;;;;;1247106;23;19941;-78
2023/07/14 04:57:02;;;;;;;;;;;;;;;;;;1246951;23;20365;-77
2023/07/14 04:57:32;;;;;;;;;;;;;;;;;;1247307;23;20289;-77
2023/07/14 04:58:02;;;;;;;;;;;;;;;;;;1247273;23;19906;-79
2023/07/14 04:58:32;;;;;;;;;;;;;;;;;;1247370;23;19910;-80
2023/07/14 04:59:03;;;;;;;;;;;;;;;;;;1247624;23;19906;-77